KAOH/AOH METAR and TAF weather

Enter ICAO airport designator
Station Type Date Time Source
KAOH METAR 2019/05/27 09:02 UTC NOAA

KAOH 270902Z AUTO 04004KT 10SM SCT005 16/14 A3005 RMK AO2 T01560144


Station Type Date Time Source
KAOH Decoded METAR 2019/05/27 09:02 UTC NOAA

LIMA ALLEN COUNTY AIRPORT, OH, United States (KAOH) 40-42N 84-01W 296M
May 27, 2019 - 05:02 AM EDT / 2019.05.27 0902 UTC
Wind: from the NE (040 degrees) at 5 MPH (4 KT):0
Visibility: 10 mile(s):0
Sky conditions: partly cloudy
Temperature: 60.1 F (15.6 C)
Dew Point: 57.9 F (14.4 C)
Relative Humidity: 92%
Pressure (altimeter): 30.05 in. Hg (1017 hPa)
ob: KAOH 270902Z AUTO 04004KT 10SM SCT005 16/14 A3005 RMK AO2 T01560144
cycle: 9

Station Type Date Time Source
KAOH TAF UTC NOAA

Error!

Example: see airport list